Aérodrome :
LOGIN :

S'inscrire | Disclaimer

   EN    FR    IT 

 










Légende :    VFR   VFR Marginal   IFR   IFR Intensif   IFR Très Intensif
Visi : 
Plafond : 
>= 8 km
>= 3000ft
5 à 8 km
1000 à 3000 ft
1500m à 5 km
500 à 1000 ft
800 à 1500m
200 à 500 ft
< 800m
< 200 ft
Symboles :   Orages  Brouillard  Fortes neiges  Fortes précipitations  Vent > 20 kt
SIGMETs :   Divers  Orages  Givrage  Turbulence  Onde Orograph.  Cendres Volcan.






- Altitude de l'aérodrome : 755 ft
- Code IATA : DRS


EDDC - Dresden Klotzsche

DERNIER METAR :
  • 110320Z 12003KT CAVOK M01/M04 Q1017

METARs EXPIRÉS :
  • 110250Z 14004KT 110V170 CAVOK M00/M04 Q1017
  • 110220Z 15007KT CAVOK M00/M03 Q1018
  • 110150Z 16007KT CAVOK M00/M03 Q1019
  • 110120Z 16007KT CAVOK 00/M03 Q1019
  • 110050Z 16008KT CAVOK 00/M03 Q1020

TAF TAF EDDC
Valide du 11 à 00h jusqu'au 12 à 00h UTC


102300Z 1100/1124 16011KT CAVOK
TEMPO 1104/1114 15015G25KT



MET'MAP, la Météo Aéronautique d'un coup d'oeil ! - Copyright ORBIFLY Décembre 2007 - Disclaimer

ORBIFLY MET'MAP TEAM :

Programmation & Développement : Alexandra Zaïnal
Sur une idée originale de : Baudouin d'Aumeries
Assistance à la programmation : Marc-Olivier Méhu
Soutien technique & logistique : Manuel Goepfert

Contact : metmap@orbifly.com




SOURCES & CREDITS :

   NOAA